• Join FlightAware (Why Join?)
  • Login
  • US Flag 
05:43AM EST


 

Airport Tracker/Info


-or-


 

Live Flight TrackerFlight Track Log ✈ N830QS ✈ 12-Jan-2014 ✈ KMQS - KBWI

Flight Track Log - Related Links

Times and Time Zones

All times are in EST time to prevent confusion due to time zone crossing. See the N830QS flight status page for this flight to view local times or setup timezone preferences in your user account.

Time Position Orientation Groundspeed Altitude Reporting Facility
EST Latitude Longitude Course Direction KTS MPH feet Rate Location/Type
05:33PM 39.9833 -75.9000 270° West 183 211 2,300  Level Philadelphia TRACON
05:34PM 39.9833 -75.9167 270° West 182 209 3,100 2,040 Climbing Philadelphia TRACON
05:36PM 39.8333 -75.9500 190° South 266 306 8,000 1,920 Climbing Potomac TRACON
05:37PM 39.7667 -75.9833 201° Southwest 273 314 9,800 1,020 Climbing Potomac TRACON
05:38PM 39.7167 -76.0500 226° Southwest 272 313 10,000 60 Climbing Potomac TRACON
05:39PM 39.6667 -76.1333 232° Southwest 273 314 10,000  Level Potomac TRACON
05:40PM 39.6167 -76.1833 218° Southwest 273 314 10,000 -720 Level Potomac TRACON
05:41PM 39.5500 -76.2500 218° Southwest 276 318 8,700 -1,380 Descending Potomac TRACON
05:42PM 39.5000 -76.3167 226° Southwest 266 306 7,300 -1,440 Descending Potomac TRACON
05:43PM 39.4333 -76.3667 210° Southwest 261 300 5,900 -1,380 Descending Potomac TRACON
05:45PM 39.3000 -76.4333 218° Southwest 249 287 3,200 -1,260 Descending Potomac TRACON
05:46PM 39.2333 -76.4667 201° Southwest 249 287 2,000 -660 Descending Potomac TRACON
05:47PM 39.1833 -76.4833 194° South 252 290 2,000  Level Potomac TRACON
05:48PM 39.1333 -76.5333 218° Southwest 196 226 2,000 -240 Level Potomac TRACON
05:49PM 39.1333 -76.5833 270° West 146 168 1,600 -600 Descending Potomac TRACON
05:50PM 39.1500 -76.6167 303° West 104 120 900 -600 Descending Potomac TRACON
05:51PM 39.1667 -76.6500 303° West 105 121 400 -540 Descending Potomac TRACON
05:53PM 39.1667 -76.6667 270° West  Level FlightAware Approximate
06:00PM 39.1754 -76.6683 270° West  Level Estimated
06:01PM 39.1754 -76.6683 270° West  Level Estimated